createdAt,value
2018-12-31T00:02:19.757Z,69.95
2018-12-31T00:04:50.261Z,71.67
2018-12-31T00:07:20.819Z,71.72
2018-12-31T00:09:51.365Z,68.02
2018-12-31T00:12:21.870Z,69.47
2018-12-31T00:14:52.297Z,69.95
2018-12-31T00:17:22.817Z,70.05
2018-12-31T00:19:53.257Z,70.95
2018-12-31T00:22:24.484Z,70.35
2018-12-31T00:24:54.920Z,66.72
2018-12-31T00:27:25.339Z,68.22
2018-12-31T00:29:55.774Z,68.67
2018-12-31T00:32:26.210Z,66.72
2018-12-31T00:34:56.667Z,67.17
2018-12-31T00:37:27.017Z,63.48
2018-12-31T00:39:57.441Z,65.25
2018-12-31T00:42:27.832Z,65.42
2018-12-31T00:44:58.266Z,65.17
2018-12-31T00:47:28.677Z,64.65
2018-12-31T00:49:59.101Z,64.20
2018-12-31T00:52:29.524Z,62.30
2018-12-31T00:54:59.940Z,62.98
2018-12-31T00:57:30.324Z,63.83
2018-12-31T01:00:00.680Z,61.23
2018-12-31T01:02:31.106Z,59.03
2018-12-31T01:05:01.563Z,60.20
2018-12-31T01:07:32.003Z,60.08
2018-12-31T01:10:02.405Z,58.85
2018-12-31T01:12:32.836Z,57.33
2018-12-31T01:15:03.351Z,58.98
2018-12-31T01:17:33.767Z,57.98
2018-12-31T01:20:04.207Z,59.42
2018-12-31T01:22:34.631Z,57.43
2018-12-31T01:25:05.048Z,58.17
2018-12-31T01:27:35.409Z,57.55
2018-12-31T01:30:06.103Z,56.10
2018-12-31T01:32:36.542Z,55.05
2018-12-31T01:35:06.944Z,54.48
2018-12-31T01:37:37.337Z,55.12
2018-12-31T01:40:07.772Z,54.27
2018-12-31T01:42:38.087Z,53.17
2018-12-31T01:45:08.536Z,51.73
2018-12-31T01:47:38.893Z,53.33
2018-12-31T01:50:09.337Z,52.93
2018-12-31T01:52:39.681Z,52.73
2018-12-31T01:55:10.048Z,52.53
2018-12-31T01:57:40.452Z,52.00
2018-12-31T02:00:10.804Z,50.45
2018-12-31T02:02:41.238Z,49.70
2018-12-31T02:05:11.675Z,49.00
2018-12-31T02:07:42.110Z,48.83
2018-12-31T02:10:12.530Z,49.95
2018-12-31T02:12:42.957Z,47.17
2018-12-31T02:15:13.371Z,46.55
2018-12-31T02:17:43.807Z,48.28
2018-12-31T02:20:15.199Z,47.10
2018-12-31T02:22:45.585Z,45.67
2018-12-31T02:25:15.977Z,46.68
2018-12-31T02:27:46.370Z,47.08
2018-12-31T02:30:16.800Z,45.88
2018-12-31T02:32:47.293Z,43.33
2018-12-31T02:35:17.739Z,43.83
2018-12-31T02:37:48.107Z,44.23
2018-12-31T02:40:18.525Z,43.60
2018-12-31T02:42:48.888Z,43.00
2018-12-31T02:45:19.251Z,41.77
2018-12-31T02:47:49.641Z,41.53
2018-12-31T02:50:20.069Z,42.08
2018-12-31T02:52:50.472Z,40.73
2018-12-31T02:55:20.834Z,41.48
2018-12-31T02:57:51.252Z,44.75
2018-12-31T03:00:21.738Z,40.63
2018-12-31T03:02:52.182Z,41.15
2018-12-31T03:05:22.564Z,42.45
2018-12-31T03:07:52.968Z,42.78
2018-12-31T03:10:23.364Z,45.23
2018-12-31T03:12:53.777Z,46.45
2018-12-31T03:15:24.074Z,50.80
2018-12-31T03:17:54.403Z,52.58
2018-12-31T03:20:24.751Z,53.33
2018-12-31T03:22:55.070Z,50.30
2018-12-31T03:25:25.399Z,50.60
2018-12-31T03:27:55.753Z,48.90
2018-12-31T03:30:26.147Z,52.78
2018-12-31T03:32:56.541Z,50.78
2018-12-31T03:35:26.936Z,51.77
2018-12-31T03:37:57.340Z,49.65
2018-12-31T03:40:27.679Z,50.73
2018-12-31T03:42:58.066Z,50.20
2018-12-31T03:45:28.442Z,51.20
2018-12-31T03:47:58.830Z,49.67
2018-12-31T03:50:29.165Z,50.30
2018-12-31T03:52:59.550Z,49.30
2018-12-31T03:55:29.922Z,51.00
2018-12-31T03:58:00.361Z,50.03
2018-12-31T04:00:30.736Z,50.55
2018-12-31T04:03:01.287Z,50.05
2018-12-31T04:05:31.680Z,48.68
2018-12-31T04:08:01.986Z,49.03
2018-12-31T04:10:32.396Z,47.50
2018-12-31T04:13:03.033Z,47.45
2018-12-31T04:15:33.453Z,49.13
2018-12-31T04:18:03.744Z,47.03
2018-12-31T04:20:34.049Z,47.23
2018-12-31T04:23:04.452Z,46.55
2018-12-31T04:25:34.883Z,47.67
2018-12-31T04:28:05.235Z,48.17
2018-12-31T04:30:35.563Z,45.67
2018-12-31T04:33:05.945Z,47.23
2018-12-31T04:35:36.882Z,45.83
2018-12-31T04:38:07.262Z,45.30
2018-12-31T04:40:37.594Z,44.60
2018-12-31T04:43:08.022Z,44.13
2018-12-31T04:45:38.397Z,44.00
2018-12-31T04:48:08.743Z,42.98
2018-12-31T04:50:39.134Z,43.58
2018-12-31T04:53:09.554Z,43.10
2018-12-31T04:55:44.332Z,44.58
2018-12-31T04:58:12.097Z,42.25
2018-12-31T05:00:42.421Z,42.43
2018-12-31T05:03:12.858Z,41.45
2018-12-31T05:05:43.634Z,40.90
2018-12-31T05:08:13.962Z,41.50
2018-12-31T05:10:44.386Z,41.80
2018-12-31T05:13:15.072Z,41.23
2018-12-31T05:15:45.469Z,41.77
2018-12-31T05:18:15.857Z,39.48
2018-12-31T05:20:46.592Z,39.35
2018-12-31T05:23:16.982Z,39.50
2018-12-31T05:25:47.340Z,39.33
2018-12-31T05:28:17.749Z,38.08
2018-12-31T05:30:48.259Z,36.83
2018-12-31T05:33:18.707Z,37.73
2018-12-31T05:35:49.167Z,37.60
2018-12-31T05:38:19.522Z,37.88
2018-12-31T05:40:49.956Z,37.78
2018-12-31T05:43:20.337Z,36.68
2018-12-31T05:45:50.764Z,35.90
2018-12-31T05:48:21.159Z,37.13
2018-12-31T05:50:51.599Z,33.75
2018-12-31T05:53:21.933Z,34.35
2018-12-31T05:55:52.318Z,34.23
2018-12-31T05:58:22.737Z,31.30
2018-12-31T06:00:53.116Z,32.28
2018-12-31T06:03:23.542Z,30.95
2018-12-31T06:05:53.944Z,29.80
2018-12-31T06:08:24.284Z,31.48
2018-12-31T06:10:54.732Z,33.92
2018-12-31T06:13:25.151Z,33.00
2018-12-31T06:15:55.544Z,36.38
2018-12-31T06:18:25.871Z,34.90
2018-12-31T06:20:56.243Z,36.80
2018-12-31T06:23:26.739Z,38.15
2018-12-31T06:25:57.129Z,37.45
2018-12-31T06:28:27.525Z,41.18
2018-12-31T06:30:57.852Z,41.75
2018-12-31T06:33:28.174Z,42.45
2018-12-31T06:35:58.539Z,45.05
2018-12-31T06:38:28.922Z,46.58
2018-12-31T06:40:59.264Z,46.25
2018-12-31T06:43:29.713Z,44.63
2018-12-31T06:46:00.194Z,45.38
2018-12-31T06:48:30.502Z,47.30
2018-12-31T06:51:00.982Z,45.38
2018-12-31T06:53:31.373Z,44.58
2018-12-31T06:56:01.758Z,43.48
2018-12-31T06:58:32.079Z,44.45
2018-12-31T07:01:02.377Z,45.33
2018-12-31T07:03:33.767Z,43.13
2018-12-31T07:06:04.258Z,42.58
2018-12-31T07:08:34.877Z,43.02
2018-12-31T07:11:05.465Z,44.83
2018-12-31T07:13:36.028Z,42.50
2018-12-31T07:16:06.527Z,43.30
2018-12-31T07:18:36.886Z,42.15
2018-12-31T07:21:07.199Z,41.92
2018-12-31T07:23:37.524Z,42.27
2018-12-31T07:26:07.987Z,42.00
2018-12-31T07:28:38.359Z,41.35
2018-12-31T07:31:08.689Z,42.45
2018-12-31T07:33:39.049Z,42.30
2018-12-31T07:36:11.059Z,38.78
2018-12-31T07:38:41.489Z,36.70
2018-12-31T07:41:11.912Z,38.38
2018-12-31T07:43:46.339Z,37.08
2018-12-31T07:46:19.385Z,35.20
2018-12-31T07:48:50.126Z,33.95
2018-12-31T07:51:20.639Z,35.88
2018-12-31T07:53:51.320Z,36.42
2018-12-31T07:56:22.372Z,34.23
2018-12-31T07:58:53.327Z,33.65
2018-12-31T08:01:36.213Z,33.88
2018-12-31T08:04:14.090Z,34.30
2018-12-31T08:06:45.468Z,32.55
2018-12-31T08:09:17.622Z,32.67
2018-12-31T08:11:48.169Z,31.25
2018-12-31T08:14:20.025Z,32.30
2018-12-31T08:16:51.269Z,32.28
2018-12-31T08:19:21.774Z,32.08
2018-12-31T08:21:52.285Z,31.45
2018-12-31T08:24:23.518Z,29.82
2018-12-31T08:26:53.915Z,30.50
2018-12-31T08:29:24.638Z,31.33
2018-12-31T08:31:55.144Z,29.85
2018-12-31T08:34:25.536Z,30.62
2018-12-31T08:36:55.982Z,29.12
2018-12-31T08:39:26.394Z,29.77
2018-12-31T08:41:56.827Z,29.85
2018-12-31T08:44:27.607Z,27.82
2018-12-31T08:46:58.523Z,28.30
2018-12-31T08:49:29.240Z,27.45
2018-12-31T08:52:00.303Z,28.55
2018-12-31T08:54:30.924Z,29.75
2018-12-31T08:57:01.528Z,27.93
2018-12-31T08:59:32.018Z,27.52
2018-12-31T09:02:02.249Z,29.25
2018-12-31T09:04:33.133Z,26.33
2018-12-31T09:07:03.492Z,27.40
2018-12-31T09:09:40.852Z,27.67
2018-12-31T09:12:41.986Z,26.65
2018-12-31T09:15:14.799Z,27.00
2018-12-31T09:17:45.166Z,25.65
2018-12-31T09:20:15.512Z,25.68
2018-12-31T09:22:45.873Z,26.15
2018-12-31T09:25:16.249Z,26.10
2018-12-31T09:27:46.682Z,25.52
2018-12-31T09:30:17.160Z,23.70
2018-12-31T09:32:47.537Z,25.12
2018-12-31T09:35:17.914Z,24.85
2018-12-31T09:37:48.223Z,25.30
2018-12-31T09:40:18.679Z,25.12
2018-12-31T09:42:49.086Z,23.80
2018-12-31T09:45:23.483Z,24.85
2018-12-31T09:47:54.981Z,22.95
2018-12-31T09:50:25.343Z,23.32
2018-12-31T09:52:55.816Z,23.02
2018-12-31T09:55:26.234Z,22.93
2018-12-31T09:57:56.694Z,22.40
2018-12-31T10:00:27.089Z,22.32
2018-12-31T10:02:57.812Z,23.38
2018-12-31T10:05:30.837Z,22.07
2018-12-31T10:08:01.337Z,22.15
2018-12-31T10:10:31.887Z,22.32
2018-12-31T10:13:02.376Z,21.27
2018-12-31T10:15:32.969Z,21.20
2018-12-31T10:18:04.030Z,21.10
2018-12-31T10:20:34.488Z,20.77
2018-12-31T10:23:04.904Z,21.70
2018-12-31T10:25:35.304Z,20.32
2018-12-31T10:28:05.605Z,20.25
2018-12-31T10:30:35.971Z,21.27
2018-12-31T10:33:06.458Z,20.77
2018-12-31T10:35:36.986Z,20.68
2018-12-31T10:38:07.409Z,19.67
2018-12-31T10:40:37.745Z,19.25
2018-12-31T10:43:09.143Z,20.25
2018-12-31T10:45:39.566Z,19.12
2018-12-31T10:48:10.171Z,18.73
2018-12-31T10:50:40.557Z,19.02
2018-12-31T10:53:11.026Z,19.92
2018-12-31T10:55:41.418Z,19.57
2018-12-31T10:58:11.746Z,18.48
2018-12-31T11:00:43.733Z,17.62
2018-12-31T11:03:14.236Z,18.12
2018-12-31T11:05:44.584Z,17.37
2018-12-31T11:08:14.924Z,18.67
2018-12-31T11:10:45.309Z,17.27
2018-12-31T11:13:15.870Z,17.62
2018-12-31T11:15:46.272Z,16.97
2018-12-31T11:18:16.689Z,18.85
2018-12-31T11:20:47.076Z,17.12
2018-12-31T11:23:17.514Z,17.17
2018-12-31T11:25:47.985Z,16.67
2018-12-31T11:28:17.891Z,16.50
2018-12-31T11:30:48.134Z,16.52
2018-12-31T11:33:18.710Z,17.17
2018-12-31T11:35:49.497Z,16.55
2018-12-31T11:38:19.745Z,17.37
2018-12-31T11:40:49.993Z,16.15
2018-12-31T11:43:20.337Z,15.20
2018-12-31T11:45:50.857Z,16.10
2018-12-31T11:48:39.412Z,15.93
2018-12-31T11:51:13.153Z,16.05
2018-12-31T11:53:45.309Z,15.30
2018-12-31T11:56:15.688Z,15.50
2018-12-31T11:58:45.932Z,16.37
2018-12-31T12:01:16.352Z,15.43
2018-12-31T12:03:46.682Z,15.93
2018-12-31T12:06:17.010Z,15.08
2018-12-31T12:08:47.420Z,14.95
2018-12-31T12:11:17.905Z,15.80
2018-12-31T12:13:48.320Z,15.58
2018-12-31T12:16:18.715Z,14.13
2018-12-31T12:18:49.049Z,14.68
2018-12-31T12:21:19.342Z,15.70
2018-12-31T12:23:49.704Z,15.80
2018-12-31T12:26:19.926Z,14.75
2018-12-31T12:28:50.186Z,14.58
2018-12-31T12:31:20.972Z,14.18
2018-12-31T12:33:51.554Z,14.58
2018-12-31T12:36:22.087Z,13.85
2018-12-31T12:38:52.345Z,14.70
2018-12-31T12:41:22.614Z,13.83
2018-12-31T12:43:54.115Z,13.75
2018-12-31T12:46:24.394Z,13.50
2018-12-31T12:48:55.763Z,13.53
2018-12-31T12:51:26.064Z,14.13
2018-12-31T12:56:24.949Z,13.20
2018-12-31T12:58:55.433Z,13.78
2018-12-31T13:01:26.097Z,14.05
2018-12-31T13:03:57.423Z,13.58
2018-12-31T13:06:27.676Z,13.45
2018-12-31T13:08:57.997Z,13.85
2018-12-31T13:11:28.271Z,15.18
2018-12-31T13:13:58.500Z,13.83
2018-12-31T13:16:28.856Z,14.45
2018-12-31T13:18:59.220Z,14.95
2018-12-31T13:21:29.456Z,14.18
2018-12-31T13:23:59.714Z,15.00
2018-12-31T13:26:30.046Z,15.38
2018-12-31T13:29:00.389Z,14.78
2018-12-31T13:31:30.685Z,15.40
2018-12-31T13:34:00.963Z,14.90
2018-12-31T13:36:31.607Z,13.68
2018-12-31T13:39:01.906Z,13.80
2018-12-31T13:41:33.290Z,15.95
2018-12-31T13:44:03.578Z,14.60
2018-12-31T13:46:33.890Z,16.60
2018-12-31T13:49:04.224Z,15.00
2018-12-31T13:51:34.507Z,15.05
2018-12-31T13:54:04.756Z,14.93
2018-12-31T13:56:35.044Z,14.45
2018-12-31T13:59:05.299Z,15.13
2018-12-31T14:01:35.564Z,16.45
2018-12-31T14:04:09.447Z,17.07
2018-12-31T14:06:39.886Z,124.25
2018-12-31T14:09:10.236Z,103.00
2018-12-31T14:11:40.751Z,133.75
2018-12-31T14:14:11.711Z,117.22
2018-12-31T14:16:42.013Z,127.90
2018-12-31T14:19:12.255Z,122.70
2018-12-31T14:21:42.492Z,119.85
2018-12-31T14:24:12.843Z,119.47
2018-12-31T14:26:43.527Z,137.00
2018-12-31T14:29:15.936Z,124.50
2018-12-31T14:31:46.177Z,118.53
2018-12-31T14:34:16.441Z,126.35
2018-12-31T14:36:46.746Z,119.82
2018-12-31T14:39:17.125Z,115.50
2018-12-31T14:41:47.363Z,112.77
2018-12-31T14:44:17.696Z,112.32
2018-12-31T14:46:48.058Z,114.85
2018-12-31T14:49:18.370Z,113.00
2018-12-31T14:51:48.610Z,108.65
2018-12-31T14:54:18.848Z,107.30
2018-12-31T14:56:49.170Z,103.85
2018-12-31T14:59:19.749Z,103.20
2018-12-31T15:01:50.063Z,106.83
2018-12-31T15:04:20.283Z,102.70
2018-12-31T15:06:50.601Z,104.05
2018-12-31T15:09:21.182Z,114.28
2018-12-31T15:11:51.550Z,114.88
2018-12-31T15:14:21.849Z,122.53
2018-12-31T15:16:52.155Z,119.72
2018-12-31T15:19:22.417Z,119.67
2018-12-31T15:21:53.067Z,116.03
2018-12-31T15:24:23.383Z,113.55
2018-12-31T15:26:53.701Z,109.57
2018-12-31T15:29:25.030Z,108.00
2018-12-31T15:31:55.270Z,108.92
2018-12-31T15:34:25.543Z,105.85
2018-12-31T15:36:55.763Z,104.38
2018-12-31T15:39:26.066Z,98.40
2018-12-31T15:41:56.435Z,96.50
2018-12-31T15:44:26.695Z,96.22
2018-12-31T15:46:57.002Z,94.32
2018-12-31T15:49:27.240Z,93.03
2018-12-31T15:51:57.514Z,91.15
2018-12-31T15:54:27.784Z,88.30
2018-12-31T15:56:58.301Z,90.03
2018-12-31T15:59:28.643Z,86.02
2018-12-31T16:01:58.903Z,86.30
2018-12-31T16:04:29.110Z,83.78
2018-12-31T16:06:59.350Z,82.67
2018-12-31T16:09:29.608Z,82.40
2018-12-31T16:11:59.831Z,79.22
2018-12-31T16:14:30.995Z,79.80
2018-12-31T16:17:01.296Z,82.42
2018-12-31T16:19:31.912Z,80.12
2018-12-31T16:22:02.158Z,79.55
2018-12-31T16:24:33.476Z,79.27
2018-12-31T16:27:03.782Z,77.85
2018-12-31T16:29:34.146Z,77.47
2018-12-31T16:32:04.371Z,77.10
2018-12-31T16:34:34.710Z,74.00
2018-12-31T16:37:05.015Z,73.45
2018-12-31T16:39:35.445Z,78.65
2018-12-31T16:42:06.174Z,77.58
2018-12-31T16:44:37.449Z,77.80
2018-12-31T16:47:07.912Z,75.03
2018-12-31T16:49:38.279Z,78.02
2018-12-31T16:52:10.072Z,79.12
2018-12-31T16:54:40.316Z,75.78
2018-12-31T16:57:10.646Z,75.87
2018-12-31T16:59:41.012Z,78.02
2018-12-31T17:02:11.229Z,79.37
2018-12-31T17:04:41.855Z,80.40
2018-12-31T17:07:12.149Z,76.47
2018-12-31T17:09:42.475Z,79.17
2018-12-31T17:12:12.694Z,74.77
2018-12-31T17:14:43.246Z,76.75
2018-12-31T17:17:13.918Z,80.05
2018-12-31T17:19:44.188Z,82.12
2018-12-31T17:22:14.480Z,84.85
2018-12-31T17:24:44.750Z,79.12
2018-12-31T17:27:14.982Z,69.25
2018-12-31T17:29:45.238Z,68.10
2018-12-31T17:32:15.475Z,66.82
2018-12-31T17:34:46.058Z,64.07
2018-12-31T17:37:16.367Z,65.60
2018-12-31T17:39:48.142Z,69.90
2018-12-31T17:42:18.467Z,77.05
2018-12-31T17:44:48.804Z,76.42
2018-12-31T17:47:21.262Z,88.35
2018-12-31T17:49:51.550Z,88.37
2018-12-31T17:52:21.794Z,93.12
2018-12-31T17:54:52.039Z,84.67
2018-12-31T17:57:22.281Z,45.12
2018-12-31T17:59:52.517Z,54.65
2018-12-31T18:02:23.806Z,56.95
2018-12-31T18:04:54.165Z,56.70
2018-12-31T18:07:24.388Z,57.00
2018-12-31T18:09:55.062Z,54.13
2018-12-31T18:12:25.272Z,56.13
2018-12-31T18:14:55.789Z,55.35
2018-12-31T18:17:26.019Z,54.03
2018-12-31T18:19:56.289Z,55.95
2018-12-31T18:22:26.536Z,54.50
2018-12-31T18:24:57.124Z,53.00
2018-12-31T18:27:27.373Z,54.05
2018-12-31T18:29:57.589Z,53.15
2018-12-31T18:32:27.839Z,53.15
2018-12-31T18:34:58.168Z,54.77
2018-12-31T18:37:28.710Z,52.20
2018-12-31T18:39:58.959Z,51.37
2018-12-31T18:42:29.191Z,52.08
2018-12-31T18:44:59.416Z,51.80
2018-12-31T18:47:29.637Z,52.03
2018-12-31T18:50:00.330Z,52.03
2018-12-31T18:52:30.616Z,50.10
2018-12-31T18:55:00.959Z,52.10
2018-12-31T18:57:31.173Z,49.45
2018-12-31T19:00:01.439Z,49.00
2018-12-31T19:02:31.671Z,49.88
2018-12-31T19:05:01.964Z,50.33
2018-12-31T19:07:32.291Z,49.67
2018-12-31T19:10:02.583Z,49.50
2018-12-31T19:12:33.194Z,48.38
2018-12-31T19:15:03.423Z,48.68
2018-12-31T19:17:33.652Z,48.10
2018-12-31T19:20:04.015Z,48.02
2018-12-31T19:22:34.361Z,47.83
2018-12-31T19:25:04.586Z,46.35
2018-12-31T19:27:34.831Z,46.95
2018-12-31T19:30:05.108Z,45.45
2018-12-31T19:32:35.344Z,45.70
2018-12-31T19:35:05.970Z,47.85
2018-12-31T19:37:36.251Z,44.75
2018-12-31T19:40:06.614Z,45.73
2018-12-31T19:42:36.864Z,44.23
2018-12-31T19:45:07.083Z,43.87
2018-12-31T19:47:37.691Z,44.38
2018-12-31T19:50:07.919Z,43.02
2018-12-31T19:52:38.306Z,43.13
2018-12-31T19:55:08.530Z,42.83
2018-12-31T19:57:38.769Z,44.35
2018-12-31T20:00:09.489Z,42.20
2018-12-31T20:02:39.731Z,42.23
2018-12-31T20:05:09.975Z,42.53
2018-12-31T20:07:40.269Z,42.20
2018-12-31T20:10:10.479Z,38.55
2018-12-31T20:12:40.722Z,41.65
2018-12-31T20:15:10.945Z,41.18
2018-12-31T20:17:41.170Z,40.73
2018-12-31T20:20:11.392Z,40.80
2018-12-31T20:22:41.727Z,39.58
2018-12-31T20:25:11.979Z,38.28
2018-12-31T20:27:42.198Z,38.60
2018-12-31T20:30:12.470Z,40.55
2018-12-31T20:32:42.689Z,38.70
2018-12-31T20:35:13.015Z,37.60
2018-12-31T20:37:43.304Z,37.80
2018-12-31T20:40:13.589Z,37.90
2018-12-31T20:42:43.827Z,40.33
2018-12-31T20:45:14.072Z,37.70
2018-12-31T20:47:44.407Z,37.78
2018-12-31T20:50:14.635Z,37.95
2018-12-31T20:52:44.874Z,37.83
2018-12-31T20:55:15.159Z,38.10
2018-12-31T20:57:45.407Z,36.80
2018-12-31T21:00:15.623Z,36.20
2018-12-31T21:02:45.869Z,36.95
2018-12-31T21:05:16.091Z,36.23
2018-12-31T21:07:46.379Z,37.08
2018-12-31T21:10:16.655Z,36.85
2018-12-31T21:12:47.316Z,36.05
2018-12-31T21:15:17.574Z,35.33
2018-12-31T21:17:47.783Z,34.30
2018-12-31T21:20:18.042Z,35.03
2018-12-31T21:22:49.336Z,34.33
2018-12-31T21:25:19.592Z,34.45
2018-12-31T21:27:49.846Z,36.03
2018-12-31T21:30:20.400Z,34.45
2018-12-31T21:32:50.619Z,34.85
2018-12-31T21:35:20.875Z,34.30
2018-12-31T21:37:51.098Z,33.40
2018-12-31T21:40:21.466Z,32.75
2018-12-31T21:42:51.688Z,33.85
2018-12-31T21:45:21.949Z,33.95
2018-12-31T21:47:52.265Z,32.65
2018-12-31T21:50:22.520Z,34.92
2018-12-31T21:52:52.756Z,33.55
2018-12-31T21:55:23.039Z,32.17
2018-12-31T21:57:53.354Z,33.55
2018-12-31T22:00:23.878Z,31.73
2018-12-31T22:02:57.135Z,33.20
2018-12-31T22:05:26.128Z,30.12
2018-12-31T22:07:56.427Z,31.85
2018-12-31T22:10:26.743Z,31.62
2018-12-31T22:12:56.987Z,31.10
2018-12-31T22:15:27.232Z,31.75
2018-12-31T22:17:57.579Z,32.13
2018-12-31T22:20:27.799Z,31.80
2018-12-31T22:22:58.049Z,31.27
2018-12-31T22:25:28.263Z,30.23
2018-12-31T22:27:58.521Z,30.57
2018-12-31T22:30:28.765Z,29.52
2018-12-31T22:32:58.998Z,30.60
2018-12-31T22:35:29.420Z,30.62
2018-12-31T22:37:59.655Z,30.72
2018-12-31T22:40:30.628Z,30.02
2018-12-31T22:43:00.942Z,30.80
2018-12-31T22:45:31.182Z,29.70
2018-12-31T22:48:01.611Z,32.65
2018-12-31T22:50:31.935Z,35.28
2018-12-31T22:53:02.210Z,40.20
2018-12-31T22:55:32.446Z,41.33
2018-12-31T22:58:02.662Z,39.05
2018-12-31T23:00:32.956Z,40.20
2018-12-31T23:03:03.485Z,38.10
2018-12-31T23:05:36.371Z,38.17
2018-12-31T23:08:07.768Z,40.63
2018-12-31T23:10:37.991Z,37.58
2018-12-31T23:13:08.227Z,40.05
2018-12-31T23:15:39.883Z,37.48
2018-12-31T23:18:10.776Z,37.55
2018-12-31T23:20:41.108Z,38.50
2018-12-31T23:23:11.505Z,37.95
2018-12-31T23:25:41.766Z,38.02
2018-12-31T23:28:12.084Z,38.25
2018-12-31T23:30:42.443Z,39.05
2018-12-31T23:33:13.074Z,39.92
2018-12-31T23:35:43.320Z,40.65
2018-12-31T23:38:13.751Z,39.00
2018-12-31T23:40:44.119Z,39.33
2018-12-31T23:43:14.396Z,40.38
2018-12-31T23:45:44.760Z,41.35
2018-12-31T23:48:15.010Z,42.58
2018-12-31T23:50:45.295Z,41.08
2018-12-31T23:53:15.546Z,59.25
2018-12-31T23:55:45.774Z,78.83
2018-12-31T23:58:16.024Z,74.32
